ADDS TAF Data INFO
IDs: Format: Raw Decoded Include METARs

Data at: 0113 UTC 19 Nov 2017

KSBY 182320Z 1900/1924 20015G23KT P6SM BKN200 WS020/21040KT
  FM190400 20019G29KT P6SM BKN200 WS020/21050KT
  FM190600 21022G33KT 6SM -SHRA OVC080 WS020/21050KT
  FM190800 24019G29KT 6SM -SHRA OVC035
  FM191300 26019G29KT P6SM BKN090
  FM191600 29020G34KT P6SM SCT150